createdAt,value
2023-05-19T00:00:09.932Z,101190.47
2023-05-19T00:02:39.794Z,101186.78
2023-05-19T00:05:10.504Z,101197.41
2023-05-19T00:07:40.677Z,101189.13
2023-05-19T00:10:10.058Z,101191.03
2023-05-19T00:12:38.956Z,101191.94
2023-05-19T00:15:08.656Z,101200.41
2023-05-19T00:17:38.449Z,101201.22
2023-05-19T00:20:08.478Z,101202.53
2023-05-19T00:22:37.076Z,101202.22
2023-05-19T00:25:07.576Z,101203.75
2023-05-19T00:27:35.583Z,101199.38
2023-05-19T00:30:03.553Z,101200.66
2023-05-19T00:32:31.587Z,101206.00
2023-05-19T00:34:59.593Z,101200.72
2023-05-19T00:37:27.870Z,101205.25
2023-05-19T00:39:55.934Z,101203.75
2023-05-19T00:42:25.728Z,101206.03
2023-05-19T00:44:54.311Z,101210.63
2023-05-19T00:47:23.281Z,101228.28
2023-05-19T00:49:51.287Z,101226.81
2023-05-19T00:52:19.407Z,101230.41
2023-05-19T00:54:47.803Z,101236.50
2023-05-19T00:57:16.216Z,101239.25
2023-05-19T00:59:45.686Z,101240.13
2023-05-19T01:02:13.728Z,101231.81
2023-05-19T01:04:43.946Z,101240.13
2023-05-19T01:07:12.685Z,101243.34
2023-05-19T01:09:41.657Z,101237.16
2023-05-19T01:12:10.335Z,101239.53
2023-05-19T01:14:38.462Z,101247.69
2023-05-19T01:17:16.005Z,101251.09
2023-05-19T01:19:57.510Z,101248.47
2023-05-19T01:22:42.943Z,101241.44
2023-05-19T01:25:42.616Z,101255.69
2023-05-19T01:28:40.591Z,101249.81
2023-05-19T01:31:12.075Z,101258.81
2023-05-19T01:33:42.412Z,101260.09
2023-05-19T01:36:13.619Z,101254.44
2023-05-19T01:38:41.839Z,101259.47
2023-05-19T01:41:10.911Z,101260.94
2023-05-19T01:43:39.778Z,101261.13
2023-05-19T01:46:08.290Z,101267.84
2023-05-19T01:48:38.323Z,101270.34
2023-05-19T01:51:06.878Z,101271.97
2023-05-19T01:53:34.942Z,101276.56
2023-05-19T01:56:03.405Z,101272.34
2023-05-19T01:58:39.392Z,101278.25
2023-05-19T02:01:16.956Z,101283.88
2023-05-19T02:04:01.947Z,101284.97
2023-05-19T02:06:41.651Z,101290.81
2023-05-19T02:09:16.842Z,101280.00
2023-05-19T02:11:53.296Z,101286.28
2023-05-19T02:14:25.661Z,101280.88
2023-05-19T02:16:55.000Z,101280.44
2023-05-19T02:19:26.251Z,101282.97
2023-05-19T02:21:54.396Z,101280.94
2023-05-19T02:24:23.088Z,101276.72
2023-05-19T02:26:52.014Z,101282.16
2023-05-19T02:29:20.559Z,101283.41
2023-05-19T02:31:49.206Z,101284.22
2023-05-19T02:34:17.278Z,101288.00
2023-05-19T02:36:49.896Z,101292.16
2023-05-19T02:39:17.985Z,101293.00
2023-05-19T02:41:45.945Z,101282.81
2023-05-19T02:44:14.095Z,101293.66
2023-05-19T02:46:42.196Z,101296.97
2023-05-19T02:49:11.542Z,101292.22
2023-05-19T02:51:39.541Z,101291.41
2023-05-19T02:54:08.929Z,101284.94
2023-05-19T02:56:36.887Z,101292.63
2023-05-19T02:59:04.875Z,101284.72
2023-05-19T03:01:33.905Z,101281.34
2023-05-19T03:04:02.303Z,101286.09
2023-05-19T03:06:32.508Z,101283.16
2023-05-19T03:09:00.515Z,101285.81
2023-05-19T03:11:31.015Z,101284.19
2023-05-19T03:13:59.829Z,101283.31
2023-05-19T03:16:28.283Z,101287.44
2023-05-19T03:18:56.569Z,101295.34
2023-05-19T03:21:24.831Z,101291.16
2023-05-19T03:23:52.796Z,101290.72
2023-05-19T03:26:20.825Z,101289.88
2023-05-19T03:28:50.148Z,101284.78
2023-05-19T03:31:18.182Z,101290.41
2023-05-19T03:33:46.231Z,101297.03
2023-05-19T03:36:14.212Z,101293.47
2023-05-19T03:38:42.251Z,101285.53
2023-05-19T03:41:10.267Z,101283.41
2023-05-19T03:43:38.244Z,101289.63
2023-05-19T03:46:07.794Z,101287.06
2023-05-19T03:48:35.875Z,101282.88
2023-05-19T03:51:04.471Z,101283.47
2023-05-19T03:53:32.424Z,101280.34
2023-05-19T03:56:00.721Z,101283.25
2023-05-19T03:58:30.091Z,101285.94
2023-05-19T04:00:58.081Z,101285.50
2023-05-19T04:03:28.665Z,101295.84
2023-05-19T04:05:56.801Z,101285.81
2023-05-19T04:08:24.825Z,101288.53
2023-05-19T04:10:52.817Z,101288.25
2023-05-19T04:13:20.794Z,101285.28
2023-05-19T04:15:48.996Z,101295.88
2023-05-19T04:18:17.016Z,101295.59
2023-05-19T04:20:46.390Z,101295.13
2023-05-19T04:23:16.998Z,101293.66
2023-05-19T04:25:45.010Z,101296.97
2023-05-19T04:28:13.032Z,101298.63
2023-05-19T04:30:42.650Z,101305.28
2023-05-19T04:33:10.904Z,101303.75
2023-05-19T04:35:39.802Z,101304.97
2023-05-19T04:38:10.070Z,101305.13
2023-05-19T04:40:38.020Z,101303.00
2023-05-19T04:43:07.409Z,101306.72
2023-05-19T04:45:37.729Z,101306.25
2023-05-19T04:48:06.236Z,101296.78
2023-05-19T04:50:34.479Z,101312.84
2023-05-19T04:53:02.619Z,101304.97
2023-05-19T04:55:33.010Z,101303.69
2023-05-19T04:58:07.807Z,101301.88
2023-05-19T05:00:36.491Z,101306.19
2023-05-19T05:03:06.018Z,101304.22
2023-05-19T05:05:34.232Z,101307.44
2023-05-19T05:08:03.295Z,101302.78
2023-05-19T05:10:33.050Z,101304.59
2023-05-19T05:13:02.270Z,101316.78
2023-05-19T05:15:30.981Z,101300.38
2023-05-19T05:17:59.088Z,101306.22
2023-05-19T05:20:28.014Z,101315.09
2023-05-19T05:22:57.772Z,101313.91
2023-05-19T05:25:26.315Z,101307.19
2023-05-19T05:27:55.896Z,101316.22
2023-05-19T05:30:23.854Z,101312.06
2023-05-19T05:32:52.094Z,101309.09
2023-05-19T05:35:22.317Z,101301.75
2023-05-19T05:37:50.316Z,101304.03
2023-05-19T05:40:18.700Z,101310.53
2023-05-19T05:42:46.810Z,101303.25
2023-05-19T05:45:16.201Z,101311.63
2023-05-19T05:47:44.727Z,101306.75
2023-05-19T05:50:14.686Z,101308.94
2023-05-19T05:52:46.892Z,101303.81
2023-05-19T05:55:17.519Z,101309.72
2023-05-19T05:57:45.584Z,101308.75
2023-05-19T06:00:16.513Z,101305.72
2023-05-19T06:02:47.846Z,101306.72
2023-05-19T06:05:16.660Z,101312.13
2023-05-19T06:07:45.069Z,101311.22
2023-05-19T06:10:13.157Z,101308.06
2023-05-19T06:12:41.352Z,101307.13
2023-05-19T06:15:09.897Z,101308.56
2023-05-19T06:17:39.499Z,101304.06
2023-05-19T06:20:10.311Z,101303.44
2023-05-19T06:22:38.462Z,101304.66
2023-05-19T06:25:09.013Z,101309.94
2023-05-19T06:27:37.354Z,101303.97
2023-05-19T06:30:06.480Z,101306.53
2023-05-19T06:32:34.579Z,101313.47
2023-05-19T06:35:04.447Z,101312.47
2023-05-19T06:37:32.797Z,101316.59
2023-05-19T06:40:00.964Z,101319.69
2023-05-19T06:42:31.742Z,101306.63
2023-05-19T06:45:01.199Z,101317.88
2023-05-19T06:47:29.358Z,101318.00
2023-05-19T06:49:58.037Z,101317.91
2023-05-19T06:52:27.388Z,101311.44
2023-05-19T06:54:55.406Z,101317.78
2023-05-19T06:57:23.501Z,101311.84
2023-05-19T06:59:51.508Z,101317.44
2023-05-19T07:02:19.550Z,101317.53
2023-05-19T07:04:47.583Z,101317.38
2023-05-19T07:07:15.751Z,101321.25
2023-05-19T07:09:45.188Z,101314.19
2023-05-19T07:12:13.220Z,101319.56
2023-05-19T07:14:41.245Z,101319.06
2023-05-19T07:17:09.462Z,101317.19
2023-05-19T07:19:37.458Z,101316.97
2023-05-19T07:22:05.984Z,101325.53
2023-05-19T07:24:33.769Z,101326.44
2023-05-19T07:27:04.520Z,101322.13
2023-05-19T07:29:32.540Z,101324.13
2023-05-19T07:32:03.409Z,101320.31
2023-05-19T07:34:31.491Z,101324.75
2023-05-19T07:36:59.477Z,101322.84
2023-05-19T07:39:29.790Z,101327.84
2023-05-19T07:41:59.543Z,101319.91
2023-05-19T07:44:31.352Z,101332.59
2023-05-19T07:46:59.334Z,101336.75
2023-05-19T07:49:27.415Z,101323.94
2023-05-19T07:51:55.448Z,101328.91
2023-05-19T07:54:23.478Z,101322.34
2023-05-19T07:56:51.824Z,101318.50
2023-05-19T07:59:19.864Z,101322.38
2023-05-19T08:01:52.330Z,101320.16
2023-05-19T08:04:20.472Z,101318.25
2023-05-19T08:06:48.587Z,101307.56
2023-05-19T08:09:20.231Z,101311.69
2023-05-19T08:11:48.380Z,101309.44
2023-05-19T08:14:16.500Z,101295.66
2023-05-19T08:16:46.185Z,101300.59
2023-05-19T08:19:17.632Z,101298.41
2023-05-19T08:21:45.667Z,101296.44
2023-05-19T08:24:13.740Z,101293.66
2023-05-19T08:26:41.736Z,101298.81
2023-05-19T08:29:12.859Z,101291.88
2023-05-19T08:31:41.034Z,101298.47
2023-05-19T08:34:09.534Z,101284.66
2023-05-19T08:36:39.141Z,101291.22
2023-05-19T08:39:07.122Z,101291.78
2023-05-19T08:41:37.579Z,101289.78
2023-05-19T08:44:06.080Z,101291.19
2023-05-19T08:46:34.261Z,101302.91
2023-05-19T08:49:10.773Z,101297.06
2023-05-19T08:51:45.815Z,101305.31
2023-05-19T08:54:20.873Z,101304.22
2023-05-19T08:56:49.620Z,101294.81
2023-05-19T08:59:19.442Z,101288.78
2023-05-19T09:01:48.429Z,101292.28
2023-05-19T09:04:18.099Z,101281.25
2023-05-19T09:06:53.076Z,101284.81
2023-05-19T09:09:21.187Z,101284.63
2023-05-19T09:11:49.397Z,101287.56
2023-05-19T09:14:17.395Z,101292.50
2023-05-19T09:16:49.976Z,101282.34
2023-05-19T09:19:18.203Z,101276.72
2023-05-19T09:21:46.529Z,101285.69
2023-05-19T09:24:16.503Z,101283.44
2023-05-19T09:26:47.634Z,101282.63
2023-05-19T09:29:17.741Z,101282.84
2023-05-19T09:31:50.765Z,101275.06
2023-05-19T09:34:20.724Z,101271.72
2023-05-19T09:36:50.746Z,101275.84
2023-05-19T09:39:21.754Z,101271.56
2023-05-19T09:41:53.675Z,101266.47
2023-05-19T09:44:29.200Z,101266.00
2023-05-19T09:46:58.300Z,101263.41
2023-05-19T09:49:31.882Z,101260.00
2023-05-19T09:52:01.863Z,101264.09
2023-05-19T09:54:32.597Z,101267.00
2023-05-19T09:57:01.896Z,101267.13
2023-05-19T09:59:33.371Z,101252.19
2023-05-19T10:02:05.144Z,101263.09
2023-05-19T10:04:33.234Z,101269.78
2023-05-19T10:07:05.778Z,101276.44
2023-05-19T10:09:37.572Z,101271.16
2023-05-19T10:12:06.716Z,101268.09
2023-05-19T10:14:34.692Z,101274.19
2023-05-19T10:17:02.809Z,101267.94
2023-05-19T10:19:31.259Z,101262.41
2023-05-19T10:21:59.233Z,101266.41
2023-05-19T10:24:27.778Z,101273.25
2023-05-19T10:27:02.605Z,101264.72
2023-05-19T10:29:34.632Z,101255.34
2023-05-19T10:32:09.228Z,101268.09
2023-05-19T10:35:02.207Z,101265.72
2023-05-19T10:37:38.672Z,101265.41
2023-05-19T10:40:12.223Z,101260.47
2023-05-19T10:42:49.391Z,101257.03
2023-05-19T10:45:21.151Z,101256.28
2023-05-19T10:47:51.620Z,101253.16
2023-05-19T10:50:21.365Z,101261.88
2023-05-19T10:52:55.711Z,101257.78
2023-05-19T10:55:48.804Z,101254.00
2023-05-19T10:58:38.243Z,101251.66
2023-05-19T11:01:10.037Z,101253.19
2023-05-19T11:03:48.794Z,101255.56
2023-05-19T11:06:22.658Z,101268.38
2023-05-19T11:08:55.561Z,101265.94
2023-05-19T11:11:23.847Z,101260.81
2023-05-19T11:13:53.778Z,101260.72
2023-05-19T11:16:28.420Z,101250.56
2023-05-19T11:18:57.501Z,101251.22
2023-05-19T11:21:25.793Z,101245.88
2023-05-19T11:23:54.005Z,101249.88
2023-05-19T11:26:41.439Z,101257.78
2023-05-19T11:29:11.968Z,101248.34
2023-05-19T11:31:41.476Z,101245.50
2023-05-19T11:34:10.101Z,101247.00
2023-05-19T11:36:40.080Z,101246.72
2023-05-19T11:39:10.623Z,101255.16
2023-05-19T11:41:40.668Z,101246.31
2023-05-19T11:44:12.886Z,101247.03
2023-05-19T11:46:41.045Z,101253.16
2023-05-19T11:49:09.238Z,101252.03
2023-05-19T11:51:38.424Z,101244.75
2023-05-19T11:54:06.659Z,101253.47
2023-05-19T11:56:35.922Z,101243.69
2023-05-19T11:59:03.982Z,101243.34
2023-05-19T12:01:35.262Z,101244.34
2023-05-19T12:04:03.361Z,101247.31
2023-05-19T12:06:31.899Z,101250.06
2023-05-19T12:09:00.078Z,101240.28
2023-05-19T12:11:29.581Z,101243.28
2023-05-19T12:14:00.178Z,101250.94
2023-05-19T12:16:35.947Z,101251.16
2023-05-19T12:19:06.817Z,101243.31
2023-05-19T12:21:34.994Z,101245.03
2023-05-19T12:24:03.445Z,101246.81
2023-05-19T12:26:31.613Z,101245.09
2023-05-19T12:29:00.059Z,101239.66
2023-05-19T12:31:28.112Z,101245.91
2023-05-19T12:33:57.658Z,101244.78
2023-05-19T12:36:27.229Z,101237.41
2023-05-19T12:38:56.066Z,101236.97
2023-05-19T12:41:27.406Z,101244.97
2023-05-19T12:43:56.089Z,101228.25
2023-05-19T12:46:24.189Z,101231.56
2023-05-19T12:48:52.313Z,101226.56
2023-05-19T12:51:22.197Z,101221.00
2023-05-19T12:53:51.687Z,101226.25
2023-05-19T12:56:19.809Z,101226.25
2023-05-19T12:58:47.839Z,101229.63
2023-05-19T13:01:20.086Z,101225.53
2023-05-19T13:03:48.659Z,101223.00
2023-05-19T13:06:16.876Z,101229.41
2023-05-19T13:08:48.509Z,101223.44
2023-05-19T13:11:16.629Z,101227.09
2023-05-19T13:13:44.655Z,101217.63
2023-05-19T13:16:13.619Z,101231.03
2023-05-19T13:18:44.284Z,101219.44
2023-05-19T13:21:12.351Z,101225.97
2023-05-19T13:23:40.387Z,101215.38
2023-05-19T13:26:11.697Z,101216.22
2023-05-19T13:28:39.687Z,101223.97
2023-05-19T13:31:07.788Z,101225.69
2023-05-19T13:33:35.648Z,101219.56
2023-05-19T13:36:03.603Z,101216.69
2023-05-19T13:38:31.728Z,101216.41
2023-05-19T13:40:59.832Z,101203.72
2023-05-19T13:43:29.422Z,101210.78
2023-05-19T13:45:57.701Z,101208.19
2023-05-19T13:48:25.620Z,101212.78
2023-05-19T13:50:55.622Z,101216.38
2023-05-19T13:53:23.655Z,101208.66
2023-05-19T13:55:53.086Z,101214.91
2023-05-19T13:58:21.062Z,101219.16
2023-05-19T14:00:54.663Z,101207.72
2023-05-19T14:03:22.824Z,101216.72
2023-05-19T14:05:50.745Z,101210.84
2023-05-19T14:08:18.872Z,101208.25
2023-05-19T14:10:47.552Z,101200.06
2023-05-19T14:13:31.018Z,101200.78
2023-05-19T14:16:01.366Z,101193.91
2023-05-19T14:18:29.421Z,101195.03
2023-05-19T14:20:57.207Z,101188.44
2023-05-19T14:23:25.275Z,101193.84
2023-05-19T14:25:53.399Z,101194.19
2023-05-19T14:28:21.414Z,101199.69
2023-05-19T14:30:49.957Z,101213.66
2023-05-19T14:33:20.586Z,101216.78
2023-05-19T14:35:48.612Z,101212.75
2023-05-19T14:38:18.742Z,101213.78
2023-05-19T14:40:48.486Z,101202.63
2023-05-19T14:43:16.571Z,101204.09
2023-05-19T14:45:45.199Z,101206.03
2023-05-19T14:48:13.420Z,101203.41
2023-05-19T14:50:42.914Z,101203.63
2023-05-19T14:53:11.367Z,101202.00
2023-05-19T14:55:39.314Z,101202.13
2023-05-19T14:58:15.940Z,101200.69
2023-05-19T15:00:54.651Z,101199.03
2023-05-19T15:03:23.318Z,101204.91
2023-05-19T15:05:52.739Z,101196.47
2023-05-19T15:08:21.041Z,101205.13
2023-05-19T15:10:49.965Z,101201.91
2023-05-19T15:13:18.967Z,101200.91
2023-05-19T15:15:47.315Z,101202.56
2023-05-19T15:18:17.875Z,101208.81
2023-05-19T15:20:46.617Z,101207.19
2023-05-19T15:23:16.023Z,101199.69
2023-05-19T15:25:51.517Z,101195.06
2023-05-19T15:28:20.637Z,101201.41
2023-05-19T15:30:48.619Z,101201.72
2023-05-19T15:33:16.810Z,101195.13
2023-05-19T15:35:44.897Z,101193.69
2023-05-19T15:38:13.137Z,101199.50
2023-05-19T15:40:43.922Z,101199.69
2023-05-19T15:43:11.945Z,101196.53
2023-05-19T15:45:39.921Z,101195.41
2023-05-19T15:48:08.583Z,101191.94
2023-05-19T15:50:37.059Z,101187.69
2023-05-19T15:53:06.957Z,101199.31
2023-05-19T15:55:35.010Z,101194.88
2023-05-19T15:58:04.389Z,101203.31
2023-05-19T16:00:32.824Z,101196.50
2023-05-19T16:03:01.299Z,101202.19
2023-05-19T16:05:29.471Z,101199.31
2023-05-19T16:07:57.548Z,101190.59
2023-05-19T16:10:25.537Z,101189.66
2023-05-19T16:12:53.859Z,101181.19
2023-05-19T16:15:23.312Z,101188.91
2023-05-19T16:17:51.330Z,101197.94
2023-05-19T16:20:20.284Z,101184.88
2023-05-19T16:22:48.337Z,101178.69
2023-05-19T16:25:16.452Z,101178.78
2023-05-19T16:27:44.499Z,101187.44
2023-05-19T16:30:12.785Z,101182.66
2023-05-19T16:32:42.190Z,101192.19
2023-05-19T16:35:10.972Z,101192.06
2023-05-19T16:37:39.215Z,101195.88
2023-05-19T16:40:08.442Z,101186.00
2023-05-19T16:42:36.390Z,101189.31
2023-05-19T16:45:04.872Z,101189.56
2023-05-19T16:47:33.129Z,101186.88
2023-05-19T16:50:02.588Z,101192.16
2023-05-19T16:52:30.677Z,101196.97
2023-05-19T16:54:58.688Z,101191.81
2023-05-19T16:57:26.689Z,101196.22
2023-05-19T16:59:54.706Z,101198.22
2023-05-19T17:02:22.834Z,101195.50
2023-05-19T17:04:50.637Z,101202.06
2023-05-19T17:07:20.053Z,101202.56
2023-05-19T17:09:48.286Z,101190.63
2023-05-19T17:12:16.093Z,101203.13
2023-05-19T17:14:44.314Z,101200.72
2023-05-19T17:17:12.135Z,101204.00
2023-05-19T17:19:40.199Z,101201.72
2023-05-19T17:22:10.561Z,101209.38
2023-05-19T17:24:39.985Z,101203.47
2023-05-19T17:27:08.460Z,101208.22
2023-05-19T17:29:36.970Z,101202.00
2023-05-19T17:32:05.491Z,101206.56
2023-05-19T17:34:33.596Z,101203.47
2023-05-19T17:37:01.644Z,101207.69
2023-05-19T17:39:29.691Z,101215.22
2023-05-19T17:41:59.090Z,101212.78
2023-05-19T17:44:27.220Z,101209.00
2023-05-19T17:46:55.448Z,101214.03
2023-05-19T17:49:25.842Z,101211.72
2023-05-19T17:51:54.600Z,101218.63
2023-05-19T17:54:23.269Z,101224.72
2023-05-19T17:56:52.606Z,101215.28
2023-05-19T17:59:22.652Z,101220.63
2023-05-19T18:01:51.479Z,101218.03
2023-05-19T18:04:20.383Z,101216.00
2023-05-19T18:06:52.033Z,101222.09
2023-05-19T18:09:31.520Z,101216.78
2023-05-19T18:12:02.216Z,101223.59
2023-05-19T18:14:31.805Z,101222.19
2023-05-19T18:16:59.878Z,101226.19
2023-05-19T18:19:27.973Z,101226.16
2023-05-19T18:21:56.228Z,101227.31
2023-05-19T18:24:24.010Z,101233.69
2023-05-19T18:26:52.013Z,101237.94
2023-05-19T18:29:20.033Z,101242.00
2023-05-19T18:31:49.436Z,101249.69
2023-05-19T18:34:17.455Z,101252.19
2023-05-19T18:36:45.525Z,101255.53
2023-05-19T18:39:13.509Z,101263.34
2023-05-19T18:41:42.840Z,101258.88
2023-05-19T18:44:11.622Z,101262.22
2023-05-19T18:46:39.622Z,101264.50
2023-05-19T18:49:11.556Z,101273.88
2023-05-19T18:51:39.855Z,101274.59
2023-05-19T18:54:08.445Z,101266.78
2023-05-19T18:56:36.596Z,101271.69
2023-05-19T18:59:04.615Z,101282.31
2023-05-19T19:01:32.671Z,101288.50
2023-05-19T19:04:01.100Z,101286.19
2023-05-19T19:06:31.401Z,101277.50
2023-05-19T19:08:59.401Z,101286.72
2023-05-19T19:11:27.536Z,101290.72
2023-05-19T19:13:56.810Z,101285.97
2023-05-19T19:16:24.967Z,101293.97
2023-05-19T19:18:53.110Z,101296.41
2023-05-19T19:21:24.022Z,101301.19
2023-05-19T19:23:54.783Z,101300.56
2023-05-19T19:26:25.100Z,101309.97
2023-05-19T19:28:53.063Z,101309.94
2023-05-19T19:31:21.290Z,101312.09
2023-05-19T19:33:49.309Z,101311.84
2023-05-19T19:36:17.552Z,101312.22
2023-05-19T19:38:45.588Z,101323.81
2023-05-19T19:41:14.981Z,101318.88
2023-05-19T19:43:42.936Z,101325.59
2023-05-19T19:46:11.249Z,101325.50
2023-05-19T19:48:39.369Z,101326.47
2023-05-19T19:51:07.407Z,101330.28
2023-05-19T19:53:35.384Z,101329.31
2023-05-19T19:56:05.243Z,101328.31
2023-05-19T19:58:34.925Z,101326.97
2023-05-19T20:01:04.521Z,101327.09
2023-05-19T20:03:33.623Z,101330.78
2023-05-19T20:06:01.738Z,101332.78
2023-05-19T20:08:29.754Z,101332.09
2023-05-19T20:10:57.757Z,101337.44
2023-05-19T20:13:25.766Z,101345.75
2023-05-19T20:15:55.244Z,101337.84
2023-05-19T20:18:23.260Z,101341.78
2023-05-19T20:20:51.286Z,101343.00
2023-05-19T20:23:19.246Z,101347.19
2023-05-19T20:25:54.772Z,101343.63
2023-05-19T20:28:30.914Z,101353.69
2023-05-19T20:31:00.351Z,101358.13
2023-05-19T20:33:31.911Z,101359.25
2023-05-19T20:35:59.853Z,101357.69
2023-05-19T20:38:27.895Z,101362.09
2023-05-19T20:40:55.959Z,101361.34
2023-05-19T20:43:23.963Z,101368.91
2023-05-19T20:45:52.475Z,101363.94
2023-05-19T20:48:22.054Z,101367.56
2023-05-19T20:50:50.081Z,101362.09
2023-05-19T20:53:21.554Z,101362.69
2023-05-19T20:55:49.875Z,101348.69
2023-05-19T20:58:17.898Z,101360.28
2023-05-19T21:00:46.158Z,101361.16
2023-05-19T21:03:14.224Z,101361.69
2023-05-19T21:05:43.864Z,101366.91
2023-05-19T21:08:17.763Z,101374.06
2023-05-19T21:10:45.874Z,101374.59
2023-05-19T21:13:13.940Z,101369.91
2023-05-19T21:15:41.959Z,101376.50
2023-05-19T21:18:11.471Z,101373.44
2023-05-19T21:20:39.648Z,101384.94
2023-05-19T21:23:09.001Z,101384.66
2023-05-19T21:25:37.037Z,101376.69
2023-05-19T21:28:06.068Z,101373.91
2023-05-19T21:30:34.303Z,101374.34
2023-05-19T21:33:02.614Z,101376.22
2023-05-19T21:35:30.647Z,101373.38
2023-05-19T21:38:03.899Z,101384.34
2023-05-19T21:40:38.781Z,101381.28
2023-05-19T21:43:07.079Z,101384.78
2023-05-19T21:45:35.080Z,101387.78
2023-05-19T21:48:03.135Z,101387.78
2023-05-19T21:50:31.369Z,101387.97
2023-05-19T21:52:59.484Z,101391.53
2023-05-19T21:55:27.532Z,101386.00
2023-05-19T21:57:56.866Z,101391.41
2023-05-19T22:00:25.826Z,101388.00
2023-05-19T22:02:53.927Z,101385.78
2023-05-19T22:05:22.039Z,101385.75
2023-05-19T22:07:50.041Z,101384.00
2023-05-19T22:10:18.099Z,101379.22
2023-05-19T22:12:46.066Z,101387.88
2023-05-19T22:15:15.996Z,101379.91
2023-05-19T22:17:44.275Z,101395.63
2023-05-19T22:20:13.171Z,101387.31
2023-05-19T22:22:41.398Z,101395.78
2023-05-19T22:25:09.867Z,101394.25
2023-05-19T22:27:37.861Z,101399.66
2023-05-19T22:30:07.275Z,101406.94
2023-05-19T22:32:37.022Z,101394.59
2023-05-19T22:35:06.640Z,101400.75
2023-05-19T22:37:34.719Z,101401.28
2023-05-19T22:40:02.747Z,101408.78
2023-05-19T22:42:30.705Z,101405.41
2023-05-19T22:44:58.758Z,101404.06
2023-05-19T22:47:26.943Z,101401.69
2023-05-19T22:49:57.113Z,101406.34
2023-05-19T22:52:25.371Z,101403.03
2023-05-19T22:54:53.541Z,101406.72
2023-05-19T22:57:21.536Z,101395.03
2023-05-19T22:59:49.526Z,101405.59
2023-05-19T23:02:17.550Z,101410.38
2023-05-19T23:04:45.617Z,101408.22
2023-05-19T23:07:15.162Z,101413.63
2023-05-19T23:09:43.160Z,101420.66
2023-05-19T23:12:11.136Z,101411.63
2023-05-19T23:14:39.140Z,101413.47
2023-05-19T23:17:07.434Z,101419.22
2023-05-19T23:19:36.589Z,101410.78
2023-05-19T23:22:04.579Z,101424.59
2023-05-19T23:24:33.948Z,101429.97
2023-05-19T23:27:02.091Z,101433.09
2023-05-19T23:29:30.119Z,101429.19
2023-05-19T23:31:58.095Z,101431.75
2023-05-19T23:34:26.092Z,101432.63
2023-05-19T23:36:54.078Z,101435.44
2023-05-19T23:39:25.187Z,101428.75
2023-05-19T23:41:54.536Z,101424.69
2023-05-19T23:44:22.536Z,101431.34
2023-05-19T23:46:50.682Z,101422.22
2023-05-19T23:49:19.799Z,101433.66
2023-05-19T23:51:47.772Z,101434.75
2023-05-19T23:54:15.828Z,101431.56
2023-05-19T23:56:44.066Z,101431.25
2023-05-19T23:59:13.416Z,101434.69
